Time;durP1;ratioP1;P1;durP2;ratioP2;P2;SDS_P1;SDS_P2;PMS_P1;PMS_P2;Temp;Humidity;BMP_temperature;BMP_pressure;BME280_temperature;BME280_humidity;BME280_pressure;Samples;Min_cycle;Max_cycle;Signal;HPM_P1;HPM_P2
2022/07/20 00:03:08;;;;;;;8.98;6.50;;;;;;;;;;10407283;28;20479;-92
2022/07/20 00:08:11;;;;;;;11.57;10.38;;;;;;;;;;10407562;28;20432;-91
2022/07/20 00:13:13;;;;;;;12.45;11.15;;;;;;;;;;10406566;28;20439;-91
2022/07/20 00:18:15;;;;;;;15.82;12.52;;;;;;;;;;10409519;28;20418;-91
2022/07/20 00:23:19;;;;;;;11.27;10.10;;;;;;;;;;10404043;28;20417;-91
2022/07/20 00:28:20;;;;;;;9.82;7.90;;;;;;;;;;10407876;28;20425;-91
2022/07/20 00:33:22;;;;;;;8.10;6.78;;;;;;;;;;10409170;28;20945;-91
2022/07/20 00:38:28;;;;;;;6.60;5.30;;;;;;;;;;10409137;28;20417;-92
2022/07/20 00:43:53;;;;;;;5.88;4.53;;;;;;;;;;10390089;28;20416;-91
2022/07/20 00:48:56;;;;;;;5.47;4.20;;;;;;;;;;10389144;28;20465;-91
2022/07/20 00:53:59;;;;;;;5.18;4.35;;;;;;;;;;10413204;28;20409;-91
2022/07/20 00:59:02;;;;;;;6.28;4.32;;;;;;;;;;10415784;28;20673;-92
2022/07/20 01:04:04;;;;;;;6.53;4.30;;;;;;;;;;10416279;28;20415;-91
2022/07/20 01:09:08;;;;;;;6.93;4.47;;;;;;;;;;10415155;28;20433;-91
2022/07/20 01:14:10;;;;;;;6.68;4.70;;;;;;;;;;10412297;28;20405;-91
2022/07/20 01:19:12;;;;;;;6.18;4.50;;;;;;;;;;10415677;28;20508;-91
2022/07/20 01:24:16;;;;;;;7.50;5.00;;;;;;;;;;10413294;28;20773;-91
2022/07/20 01:29:17;;;;;;;8.90;4.78;;;;;;;;;;10417663;28;20985;-91
2022/07/20 01:34:20;;;;;;;6.97;4.07;;;;;;;;;;10417833;28;20889;-91
2022/07/20 01:39:24;;;;;;;5.23;3.60;;;;;;;;;;10413622;28;20909;-91
2022/07/20 01:44:26;;;;;;;4.22;3.22;;;;;;;;;;10422002;28;20404;-91
2022/07/20 01:49:28;;;;;;;4.72;3.42;;;;;;;;;;10405055;28;20426;-92
2022/07/20 01:54:32;;;;;;;4.85;3.22;;;;;;;;;;10409602;28;20836;-92
2022/07/20 01:59:34;;;;;;;4.40;3.03;;;;;;;;;;10409585;28;20408;-91
2022/07/20 02:04:37;;;;;;;5.78;3.00;;;;;;;;;;10430969;28;20802;-91
2022/07/20 02:09:40;;;;;;;5.15;2.80;;;;;;;;;;10441569;28;20421;-92
2022/07/20 02:14:42;;;;;;;5.65;2.75;;;;;;;;;;10435236;28;20411;-91
2022/07/20 02:19:44;;;;;;;4.00;2.30;;;;;;;;;;10426506;28;20413;-93
2022/07/20 02:24:47;;;;;;;3.08;2.40;;;;;;;;;;10425590;28;20448;-91
2022/07/20 02:29:49;;;;;;;4.72;2.90;;;;;;;;;;10410716;28;20416;-91
2022/07/20 02:34:51;;;;;;;4.93;3.10;;;;;;;;;;10429308;28;20440;-92
2022/07/20 02:39:54;;;;;;;3.97;2.80;;;;;;;;;;10427210;28;20410;-91
2022/07/20 02:44:56;;;;;;;4.78;2.70;;;;;;;;;;10429088;28;20403;-92
2022/07/20 02:49:57;;;;;;;4.40;2.73;;;;;;;;;;10427972;28;20469;-92
2022/07/20 02:55:01;;;;;;;4.40;2.95;;;;;;;;;;10428432;28;20419;-91
2022/07/20 03:00:05;;;;;;;3.80;2.88;;;;;;;;;;10437596;28;20522;-91
2022/07/20 03:05:08;;;;;;;3.87;2.70;;;;;;;;;;10440994;28;20675;-91
2022/07/20 03:10:12;;;;;;;4.13;3.10;;;;;;;;;;10410287;28;20406;-91
2022/07/20 03:15:15;;;;;;;4.00;3.00;;;;;;;;;;10425717;28;20414;-91
2022/07/20 03:20:20;;;;;;;5.20;3.10;;;;;;;;;;10425897;28;20412;-92
2022/07/20 03:25:24;;;;;;;4.57;3.10;;;;;;;;;;10402853;28;20426;-90
2022/07/20 03:30:27;;;;;;;4.40;3.03;;;;;;;;;;10426273;28;20403;-92
2022/07/20 03:35:29;;;;;;;4.03;3.30;;;;;;;;;;10424043;28;20397;-91
2022/07/20 03:40:32;;;;;;;6.32;3.25;;;;;;;;;;10407268;28;20405;-91
2022/07/20 03:45:34;;;;;;;6.93;3.73;;;;;;;;;;10421344;28;20426;-91
2022/07/20 03:50:37;;;;;;;4.95;3.50;;;;;;;;;;10406616;28;20926;-91
2022/07/20 03:55:40;;;;;;;5.37;3.33;;;;;;;;;;10389640;28;20407;-91
2022/07/20 04:00:43;;;;;;;6.43;3.47;;;;;;;;;;10407940;28;20415;-92
2022/07/20 04:05:45;;;;;;;5.72;3.67;;;;;;;;;;10410722;28;20436;-92
2022/07/20 04:10:48;;;;;;;5.53;3.50;;;;;;;;;;10412666;28;20405;-91
2022/07/20 04:15:50;;;;;;;5.33;4.00;;;;;;;;;;10389553;28;20403;-92
2022/07/20 04:20:52;;;;;;;7.60;4.87;;;;;;;;;;10403752;28;20409;-91
2022/07/20 04:25:55;;;;;;;7.47;5.32;;;;;;;;;;10404523;28;20409;-91
2022/07/20 04:30:57;;;;;;;8.07;5.40;;;;;;;;;;10403598;28;20401;-91
2022/07/20 04:35:59;;;;;;;6.63;5.22;;;;;;;;;;10406997;28;20405;-91
2022/07/20 04:41:02;;;;;;;8.18;5.40;;;;;;;;;;10410938;28;20415;-91
2022/07/20 04:46:04;;;;;;;7.78;5.55;;;;;;;;;;10406808;28;20421;-92
2022/07/20 04:51:06;;;;;;;8.88;5.63;;;;;;;;;;10405324;28;20816;-91
2022/07/20 04:56:10;;;;;;;7.45;5.32;;;;;;;;;;10409117;28;20409;-92
2022/07/20 05:01:12;;;;;;;6.95;5.20;;;;;;;;;;10404367;28;20402;-90
2022/07/20 05:06:14;;;;;;;8.50;5.80;;;;;;;;;;10391474;28;20424;-90
2022/07/20 05:11:17;;;;;;;8.10;5.60;;;;;;;;;;10404318;28;20492;-91
2022/07/20 05:16:19;;;;;;;8.90;5.22;;;;;;;;;;10405120;28;20417;-91
2022/07/20 05:21:21;;;;;;;8.65;5.63;;;;;;;;;;10402848;28;20415;-91
2022/07/20 05:26:25;;;;;;;5.80;5.20;;;;;;;;;;10406551;28;20434;-92
2022/07/20 05:31:26;;;;;;;6.82;5.00;;;;;;;;;;10405486;28;20409;-92
2022/07/20 05:36:28;;;;;;;7.90;5.20;;;;;;;;;;10402905;28;20397;-92
2022/07/20 05:41:31;;;;;;;7.53;5.10;;;;;;;;;;10409745;28;20440;-92
2022/07/20 05:46:33;;;;;;;6.40;5.20;;;;;;;;;;10417245;28;20417;-93
2022/07/20 05:51:35;;;;;;;7.38;5.15;;;;;;;;;;10412465;28;20524;-92
2022/07/20 05:56:38;;;;;;;8.23;5.35;;;;;;;;;;10412773;28;20911;-93
2022/07/20 06:01:43;;;;;;;7.70;5.60;;;;;;;;;;10412969;28;20397;-91
2022/07/20 06:06:45;;;;;;;7.47;6.10;;;;;;;;;;10415615;28;20897;-93
2022/07/20 06:44:34;;;;;;;6.20;5.60;;;;;;;;;;11598872;23;20451;-92
2022/07/20 06:49:36;;;;;;;7.10;5.93;;;;;;;;;;10229434;29;20469;-91
2022/07/20 06:54:38;;;;;;;6.70;5.50;;;;;;;;;;10245742;29;20416;-93
2022/07/20 06:59:42;;;;;;;7.10;5.60;;;;;;;;;;10240654;28;20928;-93
2022/07/20 07:04:44;;;;;;;9.23;6.28;;;;;;;;;;10209705;29;20520;-93
2022/07/20 07:09:45;;;;;;;6.87;5.53;;;;;;;;;;10202891;29;20422;-92
2022/07/20 07:14:49;;;;;;;9.13;6.10;;;;;;;;;;10210011;29;20424;-92
2022/07/20 07:19:51;;;;;;;8.77;6.00;;;;;;;;;;10183462;29;20410;-92
2022/07/20 07:24:53;;;;;;;8.37;5.80;;;;;;;;;;10200634;29;20518;-92
2022/07/20 07:29:57;;;;;;;9.90;6.38;;;;;;;;;;10206814;29;20430;-92
2022/07/20 07:34:59;;;;;;;10.27;6.07;;;;;;;;;;10208656;29;20459;-92
2022/07/20 07:40:00;;;;;;;8.25;6.00;;;;;;;;;;10234970;29;20419;-92
2022/07/20 07:45:06;;;;;;;8.20;5.90;;;;;;;;;;10226592;29;20444;-93
2022/07/20 07:50:09;;;;;;;10.18;6.07;;;;;;;;;;10213480;29;20513;-92
2022/07/20 07:55:11;;;;;;;9.23;5.68;;;;;;;;;;10210241;29;20427;-93
2022/07/20 08:00:15;;;;;;;8.25;5.30;;;;;;;;;;10227660;29;20492;-92
2022/07/20 08:05:17;;;;;;;6.90;4.20;;;;;;;;;;10211238;29;20420;-94
2022/07/20 08:10:19;;;;;;;6.75;3.88;;;;;;;;;;10220358;29;20430;-92
2022/07/20 08:15:23;;;;;;;3.73;3.43;;;;;;;;;;10216268;29;20420;-93
2022/07/20 08:20:24;;;;;;;7.63;3.50;;;;;;;;;;10197692;29;20409;-92
2022/07/20 08:25:26;;;;;;;7.15;3.88;;;;;;;;;;10203838;29;20434;-93
2022/07/20 08:30:30;;;;;;;4.90;3.33;;;;;;;;;;10213132;29;20438;-92
2022/07/20 08:35:32;;;;;;;5.70;3.60;;;;;;;;;;10216166;29;20420;-80
2022/07/20 08:40:35;;;;;;;5.63;3.73;;;;;;;;;;10218700;29;20416;-92
2022/07/20 08:45:38;;;;;;;4.53;3.67;;;;;;;;;;10217054;29;21001;-89
2022/07/20 08:50:40;;;;;;;4.57;3.75;;;;;;;;;;10206430;29;20421;-92
2022/07/20 08:55:43;;;;;;;5.83;3.90;;;;;;;;;;10219347;29;20500;-92
2022/07/20 09:00:46;;;;;;;7.07;3.55;;;;;;;;;;10227463;29;20495;-92
2022/07/20 09:06:03;;;;;;;5.75;3.58;;;;;;;;;;10207143;29;20405;-93
2022/07/20 09:11:05;;;;;;;2.72;2.53;;;;;;;;;;10187411;29;20420;-92
2022/07/20 09:16:09;;;;;;;2.50;2.30;;;;;;;;;;10219408;28;20406;-93
2022/07/20 09:21:11;;;;;;;3.80;2.45;;;;;;;;;;10205481;29;20426;-92
2022/07/20 09:26:15;;;;;;;4.68;2.72;;;;;;;;;;10213713;29;20430;-91
2022/07/20 09:31:20;;;;;;;4.57;2.77;;;;;;;;;;10210040;29;20418;-91
2022/07/20 09:36:23;;;;;;;3.67;2.92;;;;;;;;;;10214080;29;20421;-92
2022/07/20 09:41:27;;;;;;;5.75;3.10;;;;;;;;;;10224340;29;20450;-91
2022/07/20 09:46:33;;;;;;;4.03;2.80;;;;;;;;;;10201364;29;20423;-90
2022/07/20 09:51:37;;;;;;;5.00;2.80;;;;;;;;;;10204336;29;20961;-90
2022/07/20 09:56:41;;;;;;;5.18;2.67;;;;;;;;;;10208337;29;20488;-91
2022/07/20 10:01:46;;;;;;;3.20;2.20;;;;;;;;;;10211745;29;20416;-90
2022/07/20 10:06:51;;;;;;;4.13;2.58;;;;;;;;;;10209162;29;20419;-91
2022/07/20 10:11:53;;;;;;;4.18;3.15;;;;;;;;;;10199688;29;20505;-77
2022/07/20 10:16:57;;;;;;;4.60;3.07;;;;;;;;;;10207501;29;20427;-94
2022/07/20 10:21:59;;;;;;;3.75;3.25;;;;;;;;;;10194793;29;20424;-93
2022/07/20 10:27:25;;;;;;;3.33;2.77;;;;;;;;;;10216339;29;20476;-77
2022/07/20 10:32:29;;;;;;;4.80;3.00;;;;;;;;;;10202379;29;20444;-90
2022/07/20 10:37:36;;;;;;;3.63;3.00;;;;;;;;;;10215348;29;21302;-90
2022/07/20 10:42:40;;;;;;;4.28;2.80;;;;;;;;;;10201442;29;20448;-89
2022/07/20 10:47:47;;;;;;;3.42;2.90;;;;;;;;;;10205420;29;20450;-91
2022/07/20 10:52:50;;;;;;;3.63;3.03;;;;;;;;;;10212921;29;20906;-90
2022/07/20 10:57:52;;;;;;;3.97;3.00;;;;;;;;;;10197079;29;20789;-92
2022/07/20 11:02:55;;;;;;;4.73;2.83;;;;;;;;;;10190386;29;20437;-89
2022/07/20 11:08:04;;;;;;;4.13;3.20;;;;;;;;;;10210918;29;20438;-90
2022/07/20 11:13:07;;;;;;;5.30;3.08;;;;;;;;;;10208111;29;20775;-91
2022/07/20 11:18:12;;;;;;;5.72;3.00;;;;;;;;;;10206061;29;20462;-91
2022/07/20 11:23:15;;;;;;;5.05;3.30;;;;;;;;;;10180842;29;20429;-89
2022/07/20 11:28:19;;;;;;;4.85;3.20;;;;;;;;;;10209956;29;20437;-90
2022/07/20 11:33:27;;;;;;;4.60;3.40;;;;;;;;;;10218110;29;20425;-90
2022/07/20 11:38:37;;;;;;;4.20;3.20;;;;;;;;;;10208060;29;20432;-92
2022/07/20 11:43:42;;;;;;;7.00;3.00;;;;;;;;;;10206880;29;20502;-89
2022/07/20 11:48:53;;;;;;;5.20;3.03;;;;;;;;;;10207402;29;20433;-91
2022/07/20 11:53:55;;;;;;;3.47;3.17;;;;;;;;;;10200952;29;20483;-90
2022/07/20 11:58:58;;;;;;;3.03;2.83;;;;;;;;;;10199979;29;20421;-90
2022/07/20 12:04:04;;;;;;;4.03;2.85;;;;;;;;;;10183447;29;20432;-89
2022/07/20 12:09:08;;;;;;;6.03;3.60;;;;;;;;;;10203099;29;20439;-89
2022/07/20 12:14:10;;;;;;;4.60;3.20;;;;;;;;;;10210406;29;20416;-95
2022/07/20 12:19:15;;;;;;;4.03;3.03;;;;;;;;;;10194995;29;20514;-95
2022/07/20 12:24:16;;;;;;;4.93;3.57;;;;;;;;;;10207602;29;20911;-95
2022/07/20 12:29:21;;;;;;;5.03;3.20;;;;;;;;;;10205280;29;20456;-96
2022/07/20 12:34:25;;;;;;;3.83;3.10;;;;;;;;;;10192691;29;20464;-94
2022/07/20 12:39:39;;;;;;;4.65;3.58;;;;;;;;;;10191305;29;20413;-96
2022/07/20 12:44:42;;;;;;;5.70;3.50;;;;;;;;;;10195464;29;20449;-95
2022/07/20 12:49:45;;;;;;;3.43;3.00;;;;;;;;;;10212506;29;20430;-95
2022/07/20 12:54:47;;;;;;;6.22;3.30;;;;;;;;;;10201267;29;20578;-95
2022/07/20 12:59:49;;;;;;;3.58;3.08;;;;;;;;;;10206773;29;20915;-96
2022/07/20 13:04:53;;;;;;;4.72;2.95;;;;;;;;;;10219509;29;20505;-96
2022/07/20 13:09:55;;;;;;;4.15;3.30;;;;;;;;;;10207967;29;20987;-96
2022/07/20 13:14:57;;;;;;;4.28;3.50;;;;;;;;;;10209998;29;20418;-96
2022/07/20 13:20:01;;;;;;;5.20;3.37;;;;;;;;;;10196178;29;20473;-94
2022/07/20 13:25:04;;;;;;;7.40;3.10;;;;;;;;;;10216435;29;20509;-94
2022/07/20 13:30:07;;;;;;;4.77;3.00;;;;;;;;;;10218908;29;20437;-94
2022/07/20 13:35:11;;;;;;;3.90;3.17;;;;;;;;;;10211916;29;20500;-94
2022/07/20 13:40:13;;;;;;;3.63;3.08;;;;;;;;;;10237757;28;20442;-95
2022/07/20 13:45:15;;;;;;;5.00;3.47;;;;;;;;;;10251312;28;20428;-94
2022/07/20 13:50:18;;;;;;;5.57;3.20;;;;;;;;;;10190124;29;20437;-94
2022/07/20 13:55:20;;;;;;;3.93;3.00;;;;;;;;;;10192566;29;20430;-94
2022/07/20 14:00:22;;;;;;;4.47;3.10;;;;;;;;;;10199940;29;20512;-96
2022/07/20 14:05:26;;;;;;;3.80;3.45;;;;;;;;;;10210222;29;20526;-94
2022/07/20 14:10:28;;;;;;;6.30;3.38;;;;;;;;;;10215152;29;20425;-95
2022/07/20 14:15:30;;;;;;;6.47;3.38;;;;;;;;;;10205784;29;20424;-95
2022/07/20 14:20:33;;;;;;;4.95;3.60;;;;;;;;;;10201923;29;20428;-96
2022/07/20 14:25:36;;;;;;;3.80;3.10;;;;;;;;;;10193316;29;20763;-94
2022/07/20 14:30:39;;;;;;;6.05;3.50;;;;;;;;;;10180741;29;20430;-94
2022/07/20 14:35:42;;;;;;;4.73;3.20;;;;;;;;;;10198512;29;20899;-92
2022/07/20 14:40:47;;;;;;;4.43;3.30;;;;;;;;;;10210404;29;20408;-94
2022/07/20 14:45:49;;;;;;;3.85;3.00;;;;;;;;;;10199579;29;20422;-95
2022/07/20 14:50:53;;;;;;;3.55;3.25;;;;;;;;;;10198193;29;20530;-96
2022/07/20 14:55:55;;;;;;;4.55;3.50;;;;;;;;;;10183259;29;20437;-95
2022/07/20 15:00:57;;;;;;;4.07;3.70;;;;;;;;;;10201543;29;20522;-95
2022/07/20 15:06:00;;;;;;;4.88;3.45;;;;;;;;;;10187232;29;20428;-95
2022/07/20 15:11:02;;;;;;;6.47;3.73;;;;;;;;;;10197870;29;20429;-77
2022/07/20 15:16:04;;;;;;;5.17;3.60;;;;;;;;;;10195149;29;20464;-94
2022/07/20 15:21:07;;;;;;;4.57;3.42;;;;;;;;;;10197686;29;20409;-92
2022/07/20 15:26:10;;;;;;;5.40;3.77;;;;;;;;;;10201072;29;20473;-92
2022/07/20 15:31:13;;;;;;;5.53;3.40;;;;;;;;;;10204144;29;20431;-93
2022/07/20 15:36:17;;;;;;;3.70;3.40;;;;;;;;;;10199825;29;20422;-85
2022/07/20 15:41:18;;;;;;;4.50;3.40;;;;;;;;;;10200746;29;20432;-85
2022/07/20 15:46:20;;;;;;;4.75;3.55;;;;;;;;;;10209283;29;20424;-93
2022/07/20 15:51:24;;;;;;;4.22;3.65;;;;;;;;;;10214609;29;20559;-93
2022/07/20 15:57:18;;;;;;;5.75;3.58;;;;;;;;;;10212648;29;20493;-94
2022/07/20 16:01:48;;;;;;;5.13;3.90;;;;;;;;;;10195136;29;20903;-94
2022/07/20 16:06:51;;;;;;;7.13;4.07;;;;;;;;;;10207683;29;21007;-94
2022/07/20 16:11:53;;;;;;;6.13;3.90;;;;;;;;;;10190276;29;20418;-94
2022/07/20 16:16:56;;;;;;;7.33;4.10;;;;;;;;;;10201143;29;20779;-94
2022/07/20 16:21:59;;;;;;;6.03;4.18;;;;;;;;;;10199426;29;20428;-95
2022/07/20 16:27:02;;;;;;;7.15;4.30;;;;;;;;;;10207359;29;21184;-96
2022/07/20 16:32:07;;;;;;;6.10;4.18;;;;;;;;;;10206322;29;20495;-95
2022/07/20 16:37:10;;;;;;;4.60;4.10;;;;;;;;;;10205091;29;20816;-95
2022/07/20 16:42:12;;;;;;;6.47;4.47;;;;;;;;;;10194959;29;20964;-95
2022/07/20 16:47:14;;;;;;;7.03;4.60;;;;;;;;;;10211647;29;20432;-94
2022/07/20 16:52:17;;;;;;;8.60;4.33;;;;;;;;;;10199057;29;20918;-86
2022/07/20 16:57:19;;;;;;;5.68;4.40;;;;;;;;;;10195025;29;20521;-92
2022/07/20 17:02:21;;;;;;;6.80;4.30;;;;;;;;;;10187806;29;20422;-92
2022/07/20 17:07:24;;;;;;;6.35;4.70;;;;;;;;;;10191490;29;20858;-92
2022/07/20 17:12:26;;;;;;;5.53;4.53;;;;;;;;;;10190596;29;20520;-94
2022/07/20 17:17:28;;;;;;;5.03;4.30;;;;;;;;;;10201579;29;20426;-93
2022/07/20 17:22:32;;;;;;;5.72;4.13;;;;;;;;;;10172874;29;20415;-93
2022/07/20 17:27:34;;;;;;;6.07;4.63;;;;;;;;;;10194776;29;20445;-92
2022/07/20 17:32:36;;;;;;;5.07;4.50;;;;;;;;;;10188818;29;21637;-93
2022/07/20 17:37:40;;;;;;;4.97;4.50;;;;;;;;;;10205112;29;20422;-92
2022/07/20 17:42:43;;;;;;;5.95;4.30;;;;;;;;;;10196161;29;20434;-91
2022/07/20 17:47:45;;;;;;;5.40;4.07;;;;;;;;;;10216759;29;20458;-91
2022/07/20 17:52:48;;;;;;;6.78;4.43;;;;;;;;;;10208903;29;20437;-91
2022/07/20 17:57:50;;;;;;;6.75;4.40;;;;;;;;;;10207174;29;20423;-93
2022/07/20 18:02:52;;;;;;;5.60;4.20;;;;;;;;;;10215957;29;20404;-92
2022/07/20 18:07:55;;;;;;;9.35;4.18;;;;;;;;;;10194141;29;20561;-92
2022/07/20 18:12:58;;;;;;;3.83;3.20;;;;;;;;;;10201019;29;20440;-93
2022/07/20 18:18:00;;;;;;;6.88;3.17;;;;;;;;;;10205705;29;20491;-91
2022/07/20 18:23:03;;;;;;;4.32;2.85;;;;;;;;;;10205835;29;20424;-91
2022/07/20 18:28:05;;;;;;;5.43;3.17;;;;;;;;;;10206061;29;20421;-92
2022/07/20 18:33:08;;;;;;;5.50;3.10;;;;;;;;;;10214357;29;20437;-91
2022/07/20 18:38:12;;;;;;;6.57;3.05;;;;;;;;;;10216549;29;20433;-91
2022/07/20 18:43:14;;;;;;;5.93;3.43;;;;;;;;;;10217757;29;20429;-90
2022/07/20 18:48:16;;;;;;;4.68;3.28;;;;;;;;;;10196252;29;20506;-91
2022/07/20 18:53:20;;;;;;;5.80;3.03;;;;;;;;;;10202374;29;21028;-91
2022/07/20 18:58:23;;;;;;;5.70;2.97;;;;;;;;;;10217651;29;20513;-92
2022/07/20 19:03:25;;;;;;;6.07;3.08;;;;;;;;;;10213220;29;20920;-89
2022/07/20 19:08:28;;;;;;;6.13;3.05;;;;;;;;;;10211208;29;20760;-92
2022/07/20 19:13:30;;;;;;;5.28;2.92;;;;;;;;;;10205225;29;20498;-90
2022/07/20 19:18:32;;;;;;;3.83;2.73;;;;;;;;;;10206087;29;20995;-91
2022/07/20 19:23:36;;;;;;;4.95;2.92;;;;;;;;;;10209085;29;20446;-90
2022/07/20 19:28:40;;;;;;;4.90;2.92;;;;;;;;;;10212801;29;20436;-90
2022/07/20 19:33:41;;;;;;;5.65;2.80;;;;;;;;;;10173308;29;20421;-92
2022/07/20 19:38:46;;;;;;;5.20;2.60;;;;;;;;;;10205158;29;20532;-93
2022/07/20 19:43:48;;;;;;;3.63;2.63;;;;;;;;;;10208178;29;20465;-92
2022/07/20 19:48:50;;;;;;;3.07;2.60;;;;;;;;;;10181155;29;20430;-92
2022/07/20 19:53:55;;;;;;;6.47;3.28;;;;;;;;;;10209320;29;20432;-94
2022/07/20 19:58:57;;;;;;;5.00;3.17;;;;;;;;;;10218856;28;20457;-92
2022/07/20 20:03:59;;;;;;;6.30;3.80;;;;;;;;;;10196064;29;20432;-93
2022/07/20 20:20:56;;;;;;;9.60;6.50;;;;;;;;;;10216745;29;20430;-91
2022/07/20 20:25:58;;;;;;;8.43;5.55;;;;;;;;;;10196308;29;20458;-92
2022/07/20 20:36:12;;;;;;;8.37;3.80;;;;;;;;;;10110473;29;20551;-81
2022/07/20 20:41:14;;;;;;;4.40;3.63;;;;;;;;;;10103559;29;20433;-88
2022/07/20 20:46:18;;;;;;;7.78;3.78;;;;;;;;;;10115969;29;20436;-93
2022/07/20 20:51:32;;;;;;;7.90;3.63;;;;;;;;;;10116342;29;20430;-95
2022/07/20 20:56:34;;;;;;;7.50;3.53;;;;;;;;;;10119100;29;20437;-95
2022/07/20 21:01:36;;;;;;;5.80;3.60;;;;;;;;;;10115197;29;20437;-93
2022/07/20 21:06:41;;;;;;;12.07;3.25;;;;;;;;;;10118597;29;20433;-94
2022/07/20 21:11:45;;;;;;;6.23;3.30;;;;;;;;;;10127235;29;20440;-93
2022/07/20 21:16:46;;;;;;;6.18;3.35;;;;;;;;;;10128076;29;20443;-94
2022/07/20 21:21:50;;;;;;;7.87;3.50;;;;;;;;;;10124683;29;20441;-94
2022/07/20 21:26:52;;;;;;;7.47;3.70;;;;;;;;;;10122282;29;20435;-93
2022/07/20 21:31:54;;;;;;;6.57;3.30;;;;;;;;;;10119967;29;20449;-93
2022/07/20 21:36:58;;;;;;;6.75;3.20;;;;;;;;;;10122926;29;20425;-93
2022/07/20 21:42:00;;;;;;;7.47;3.65;;;;;;;;;;10122214;29;20437;-92
2022/07/20 21:47:04;;;;;;;6.85;3.50;;;;;;;;;;10121964;29;20433;-92
2022/07/20 21:52:08;;;;;;;6.00;3.20;;;;;;;;;;10112412;29;20441;-89
2022/07/20 21:57:10;;;;;;;6.38;3.13;;;;;;;;;;10099425;29;20432;-90
2022/07/20 22:02:11;;;;;;;5.38;3.25;;;;;;;;;;10104705;29;20692;-89
2022/07/20 22:07:15;;;;;;;5.35;3.30;;;;;;;;;;10104750;29;20425;-89
2022/07/20 22:12:16;;;;;;;5.50;3.97;;;;;;;;;;10108230;29;20429;-88
2022/07/20 22:17:18;;;;;;;6.93;3.37;;;;;;;;;;10108375;29;20425;-89
2022/07/20 22:22:21;;;;;;;8.13;3.60;;;;;;;;;;10107180;29;20440;-89
2022/07/20 22:27:23;;;;;;;6.20;4.00;;;;;;;;;;10107737;29;20936;-89
2022/07/20 22:32:25;;;;;;;4.93;3.73;;;;;;;;;;10110713;29;20441;-89
2022/07/20 22:37:28;;;;;;;6.28;3.60;;;;;;;;;;10109504;29;20417;-89
2022/07/20 22:42:30;;;;;;;7.72;3.90;;;;;;;;;;10107726;29;20953;-89
2022/07/20 22:47:32;;;;;;;7.47;3.80;;;;;;;;;;10108188;29;20475;-89
2022/07/20 22:52:36;;;;;;;8.77;3.73;;;;;;;;;;10109767;29;20437;-89
2022/07/20 22:57:44;;;;;;;7.25;3.63;;;;;;;;;;10107264;29;20421;-88
2022/07/20 23:02:49;;;;;;;8.47;3.70;;;;;;;;;;10108412;29;20428;-89
2022/07/20 23:07:54;;;;;;;6.60;3.70;;;;;;;;;;10109543;29;20905;-88
2022/07/20 23:12:57;;;;;;;5.55;4.05;;;;;;;;;;10108419;29;20909;-88
2022/07/20 23:17:59;;;;;;;7.93;4.30;;;;;;;;;;10110405;29;20417;-89
2022/07/20 23:23:02;;;;;;;8.27;4.57;;;;;;;;;;10106653;29;20553;-88
2022/07/20 23:28:05;;;;;;;7.50;4.33;;;;;;;;;;10107227;29;20425;-88
2022/07/20 23:33:07;;;;;;;6.95;4.22;;;;;;;;;;10107758;29;20467;-88
2022/07/20 23:38:10;;;;;;;7.43;4.17;;;;;;;;;;10106355;29;20421;-89
2022/07/20 23:43:12;;;;;;;7.37;4.40;;;;;;;;;;10107403;29;20429;-87
2022/07/20 23:48:14;;;;;;;6.13;4.20;;;;;;;;;;10107927;29;20417;-89
2022/07/20 23:53:17;;;;;;;9.30;4.57;;;;;;;;;;10106902;29;20448;-89
2022/07/20 23:58:19;;;;;;;9.00;4.28;;;;;;;;;;10108465;29;20426;-88
